sensor_id;sensor_type;location;lat;lon;timestamp;temperature;humidity
78649;DHT22;67962;47.310;9.642;2024-03-23T00:53:47;10.90;65.60
78649;DHT22;67962;47.310;9.642;2024-03-23T00:56:13;10.90;65.60
78649;DHT22;67962;47.310;9.642;2024-03-23T00:58:39;10.90;65.50
78649;DHT22;67962;47.310;9.642;2024-03-23T01:01:04;11.00;65.70
78649;DHT22;67962;47.310;9.642;2024-03-23T01:03:30;10.90;65.60
78649;DHT22;67962;47.310;9.642;2024-03-23T01:06:00;10.90;65.20
78649;DHT22;67962;47.310;9.642;2024-03-23T01:08:26;10.80;65.00
78649;DHT22;67962;47.310;9.642;2024-03-23T01:11:02;10.90;64.90
78649;DHT22;67962;47.310;9.642;2024-03-23T01:13:28;10.90;64.60
78649;DHT22;67962;47.310;9.642;2024-03-23T01:15:55;11.00;64.70
78649;DHT22;67962;47.310;9.642;2024-03-23T01:18:22;10.90;65.50
78649;DHT22;67962;47.310;9.642;2024-03-23T01:20:48;10.90;64.60
78649;DHT22;67962;47.310;9.642;2024-03-23T01:23:14;11.00;64.60
78649;DHT22;67962;47.310;9.642;2024-03-23T01:25:40;11.00;64.50
78649;DHT22;67962;47.310;9.642;2024-03-23T01:28:06;11.00;64.70
78649;DHT22;67962;47.310;9.642;2024-03-23T01:30:35;10.90;64.80
78649;DHT22;67962;47.310;9.642;2024-03-23T01:33:01;10.80;65.00
78649;DHT22;67962;47.310;9.642;2024-03-23T01:35:28;10.80;65.30
78649;DHT22;67962;47.310;9.642;2024-03-23T01:37:54;10.60;65.30
78649;DHT22;67962;47.310;9.642;2024-03-23T01:40:19;10.60;65.40
78649;DHT22;67962;47.310;9.642;2024-03-23T01:42:56;10.70;65.30
78649;DHT22;67962;47.310;9.642;2024-03-23T01:45:21;10.70;64.00
78649;DHT22;67962;47.310;9.642;2024-03-23T01:47:49;10.70;63.80
78649;DHT22;67962;47.310;9.642;2024-03-23T01:50:15;10.70;63.80
78649;DHT22;67962;47.310;9.642;2024-03-23T01:52:41;10.80;63.90
78649;DHT22;67962;47.310;9.642;2024-03-23T01:55:07;10.90;64.00
78649;DHT22;67962;47.310;9.642;2024-03-23T01:57:33;10.70;63.90
78649;DHT22;67962;47.310;9.642;2024-03-23T02:00:00;10.50;64.30
78649;DHT22;67962;47.310;9.642;2024-03-23T02:02:25;10.50;64.60
78649;DHT22;67962;47.310;9.642;2024-03-23T02:04:51;10.60;64.60
78649;DHT22;67962;47.310;9.642;2024-03-23T02:07:17;10.60;64.20
78649;DHT22;67962;47.310;9.642;2024-03-23T02:09:43;10.60;64.10
78649;DHT22;67962;47.310;9.642;2024-03-23T02:12:09;10.70;64.10
78649;DHT22;67962;47.310;9.642;2024-03-23T02:14:35;10.70;63.80
78649;DHT22;67962;47.310;9.642;2024-03-23T02:17:00;10.80;63.70
78649;DHT22;67962;47.310;9.642;2024-03-23T02:19:26;10.70;63.70
78649;DHT22;67962;47.310;9.642;2024-03-23T02:21:52;10.80;63.70
78649;DHT22;67962;47.310;9.642;2024-03-23T02:24:17;10.70;63.30
78649;DHT22;67962;47.310;9.642;2024-03-23T02:26:43;10.60;63.70
78649;DHT22;67962;47.310;9.642;2024-03-23T02:29:11;10.60;63.70
78649;DHT22;67962;47.310;9.642;2024-03-23T02:31:37;10.60;63.40
78649;DHT22;67962;47.310;9.642;2024-03-23T02:34:03;10.60;63.40
78649;DHT22;67962;47.310;9.642;2024-03-23T02:36:29;10.60;63.40
78649;DHT22;67962;47.310;9.642;2024-03-23T02:38:56;10.50;62.20
78649;DHT22;67962;47.310;9.642;2024-03-23T02:41:22;10.50;62.60
78649;DHT22;67962;47.310;9.642;2024-03-23T02:43:50;10.50;62.80
78649;DHT22;67962;47.310;9.642;2024-03-23T02:46:16;10.60;62.90
78649;DHT22;67962;47.310;9.642;2024-03-23T02:48:42;10.60;63.10
78649;DHT22;67962;47.310;9.642;2024-03-23T02:51:08;10.50;62.80
78649;DHT22;67962;47.310;9.642;2024-03-23T02:53:34;10.40;63.00
78649;DHT22;67962;47.310;9.642;2024-03-23T02:55:59;10.50;63.30
78649;DHT22;67962;47.310;9.642;2024-03-23T02:58:25;10.40;63.20
78649;DHT22;67962;47.310;9.642;2024-03-23T03:00:51;10.50;63.00
78649;DHT22;67962;47.310;9.642;2024-03-23T03:03:16;10.50;63.20
78649;DHT22;67962;47.310;9.642;2024-03-23T03:05:42;10.50;63.40
78649;DHT22;67962;47.310;9.642;2024-03-23T03:08:07;10.30;63.20
78649;DHT22;67962;47.310;9.642;2024-03-23T03:10:33;10.20;63.50
78649;DHT22;67962;47.310;9.642;2024-03-23T03:13:01;10.30;63.20
78649;DHT22;67962;47.310;9.642;2024-03-23T03:15:27;10.20;63.20
78649;DHT22;67962;47.310;9.642;2024-03-23T03:17:53;10.10;63.40
78649;DHT22;67962;47.310;9.642;2024-03-23T03:20:19;10.20;63.70
78649;DHT22;67962;47.310;9.642;2024-03-23T03:22:47;10.10;63.80
78649;DHT22;67962;47.310;9.642;2024-03-23T03:25:13;10.00;64.20
78649;DHT22;67962;47.310;9.642;2024-03-23T03:27:38;9.90;64.30
78649;DHT22;67962;47.310;9.642;2024-03-23T03:30:05;9.80;64.50
78649;DHT22;67962;47.310;9.642;2024-03-23T03:32:32;9.80;64.60
78649;DHT22;67962;47.310;9.642;2024-03-23T03:34:58;9.80;64.70
78649;DHT22;67962;47.310;9.642;2024-03-23T03:37:24;9.90;64.70
78649;DHT22;67962;47.310;9.642;2024-03-23T03:39:50;9.90;64.40
78649;DHT22;67962;47.310;9.642;2024-03-23T03:42:16;10.00;64.10
78649;DHT22;67962;47.310;9.642;2024-03-23T03:44:42;9.90;64.00
78649;DHT22;67962;47.310;9.642;2024-03-23T03:47:07;9.90;63.70
78649;DHT22;67962;47.310;9.642;2024-03-23T03:49:33;10.00;63.70
78649;DHT22;67962;47.310;9.642;2024-03-23T03:51:59;10.00;63.80
78649;DHT22;67962;47.310;9.642;2024-03-23T03:54:26;9.90;63.90
78649;DHT22;67962;47.310;9.642;2024-03-23T03:56:52;9.90;63.90
78649;DHT22;67962;47.310;9.642;2024-03-23T03:59:18;10.00;64.10
78649;DHT22;67962;47.310;9.642;2024-03-23T04:01:44;10.00;64.60
78649;DHT22;67962;47.310;9.642;2024-03-23T04:04:10;10.00;63.80
78649;DHT22;67962;47.310;9.642;2024-03-23T04:06:36;10.00;63.80
78649;DHT22;67962;47.310;9.642;2024-03-23T04:09:02;10.00;63.80
78649;DHT22;67962;47.310;9.642;2024-03-23T04:11:28;10.10;63.80
78649;DHT22;67962;47.310;9.642;2024-03-23T04:13:54;10.00;63.20
78649;DHT22;67962;47.310;9.642;2024-03-23T04:16:29;9.90;63.60
78649;DHT22;67962;47.310;9.642;2024-03-23T04:18:55;9.90;63.70
78649;DHT22;67962;47.310;9.642;2024-03-23T04:21:22;9.90;64.10
78649;DHT22;67962;47.310;9.642;2024-03-23T04:23:48;9.80;64.30
78649;DHT22;67962;47.310;9.642;2024-03-23T04:26:14;9.90;63.90
78649;DHT22;67962;47.310;9.642;2024-03-23T04:28:40;9.80;63.40
78649;DHT22;67962;47.310;9.642;2024-03-23T04:31:06;9.70;63.20
78649;DHT22;67962;47.310;9.642;2024-03-23T04:33:32;9.70;63.20
78649;DHT22;67962;47.310;9.642;2024-03-23T04:35:58;9.80;63.40
78649;DHT22;67962;47.310;9.642;2024-03-23T04:38:23;9.90;63.60
78649;DHT22;67962;47.310;9.642;2024-03-23T04:40:59;9.90;63.50
78649;DHT22;67962;47.310;9.642;2024-03-23T04:43:28;9.90;63.40
78649;DHT22;67962;47.310;9.642;2024-03-23T04:45:54;9.80;63.50
78649;DHT22;67962;47.310;9.642;2024-03-23T04:48:21;9.90;63.50
78649;DHT22;67962;47.310;9.642;2024-03-23T04:50:54;9.90;63.20
78649;DHT22;67962;47.310;9.642;2024-03-23T04:53:20;9.90;63.50
78649;DHT22;67962;47.310;9.642;2024-03-23T04:55:46;9.80;63.50
78649;DHT22;67962;47.310;9.642;2024-03-23T04:58:11;9.70;63.90
78649;DHT22;67962;47.310;9.642;2024-03-23T05:00:37;9.70;64.00
78649;DHT22;67962;47.310;9.642;2024-03-23T05:03:03;9.70;64.40
78649;DHT22;67962;47.310;9.642;2024-03-23T05:05:29;9.70;64.30
78649;DHT22;67962;47.310;9.642;2024-03-23T05:07:55;9.70;64.10
78649;DHT22;67962;47.310;9.642;2024-03-23T05:10:21;9.70;64.10
78649;DHT22;67962;47.310;9.642;2024-03-23T05:12:46;9.70;64.20
78649;DHT22;67962;47.310;9.642;2024-03-23T05:15:12;9.70;64.00
78649;DHT22;67962;47.310;9.642;2024-03-23T05:17:38;9.60;64.10
78649;DHT22;67962;47.310;9.642;2024-03-23T05:20:05;9.60;64.30
78649;DHT22;67962;47.310;9.642;2024-03-23T05:22:37;9.60;64.50
78649;DHT22;67962;47.310;9.642;2024-03-23T05:25:03;9.50;64.30
78649;DHT22;67962;47.310;9.642;2024-03-23T05:27:32;9.50;64.60
78649;DHT22;67962;47.310;9.642;2024-03-23T05:29:58;9.50;64.10
78649;DHT22;67962;47.310;9.642;2024-03-23T05:32:24;9.40;64.00
78649;DHT22;67962;47.310;9.642;2024-03-23T05:34:49;9.40;64.30
78649;DHT22;67962;47.310;9.642;2024-03-23T05:37:21;9.30;64.40
78649;DHT22;67962;47.310;9.642;2024-03-23T05:39:47;9.30;64.40
78649;DHT22;67962;47.310;9.642;2024-03-23T05:42:18;9.40;64.10
78649;DHT22;67962;47.310;9.642;2024-03-23T05:44:47;9.60;64.00
78649;DHT22;67962;47.310;9.642;2024-03-23T05:47:13;9.70;63.60
78649;DHT22;67962;47.310;9.642;2024-03-23T05:49:42;9.80;63.00
78649;DHT22;67962;47.310;9.642;2024-03-23T05:52:09;9.90;62.50
78649;DHT22;67962;47.310;9.642;2024-03-23T05:54:35;9.90;62.70
78649;DHT22;67962;47.310;9.642;2024-03-23T05:57:01;10.00;62.70
78649;DHT22;67962;47.310;9.642;2024-03-23T05:59:27;10.00;63.00
78649;DHT22;67962;47.310;9.642;2024-03-23T06:01:53;10.00;63.60
78649;DHT22;67962;47.310;9.642;2024-03-23T06:04:19;9.90;63.70
78649;DHT22;67962;47.310;9.642;2024-03-23T06:06:45;9.90;64.10
78649;DHT22;67962;47.310;9.642;2024-03-23T06:09:11;10.00;64.40
78649;DHT22;67962;47.310;9.642;2024-03-23T06:11:37;10.00;63.60
78649;DHT22;67962;47.310;9.642;2024-03-23T06:14:02;10.10;63.10
78649;DHT22;67962;47.310;9.642;2024-03-23T06:16:28;10.20;63.30
78649;DHT22;67962;47.310;9.642;2024-03-23T06:18:54;10.20;62.60
78649;DHT22;67962;47.310;9.642;2024-03-23T06:21:24;10.30;62.40
78649;DHT22;67962;47.310;9.642;2024-03-23T06:23:52;10.40;62.30
78649;DHT22;67962;47.310;9.642;2024-03-23T06:26:18;10.40;61.70
78649;DHT22;67962;47.310;9.642;2024-03-23T06:28:44;10.50;61.40
78649;DHT22;67962;47.310;9.642;2024-03-23T06:31:10;10.60;61.30
78649;DHT22;67962;47.310;9.642;2024-03-23T06:33:36;10.80;61.10
78649;DHT22;67962;47.310;9.642;2024-03-23T06:36:03;10.90;60.30
78649;DHT22;67962;47.310;9.642;2024-03-23T06:38:29;10.90;59.80
78649;DHT22;67962;47.310;9.642;2024-03-23T06:40:54;11.00;60.30
78649;DHT22;67962;47.310;9.642;2024-03-23T06:43:20;11.10;60.70
78649;DHT22;67962;47.310;9.642;2024-03-23T06:45:53;11.10;59.70
78649;DHT22;67962;47.310;9.642;2024-03-23T06:48:19;11.10;59.60
78649;DHT22;67962;47.310;9.642;2024-03-23T06:50:45;11.20;57.30
78649;DHT22;67962;47.310;9.642;2024-03-23T06:53:12;11.20;57.50
78649;DHT22;67962;47.310;9.642;2024-03-23T06:55:38;11.30;56.60
78649;DHT22;67962;47.310;9.642;2024-03-23T06:58:04;11.40;57.00
78649;DHT22;67962;47.310;9.642;2024-03-23T07:00:30;11.40;55.60
78649;DHT22;67962;47.310;9.642;2024-03-23T07:02:55;11.60;55.70
78649;DHT22;67962;47.310;9.642;2024-03-23T07:05:21;11.90;51.80
78649;DHT22;67962;47.310;9.642;2024-03-23T07:07:47;11.90;50.80
78649;DHT22;67962;47.310;9.642;2024-03-23T07:10:12;12.10;50.50
78649;DHT22;67962;47.310;9.642;2024-03-23T07:12:38;12.40;51.40
78649;DHT22;67962;47.310;9.642;2024-03-23T07:15:04;12.50;55.30
78649;DHT22;67962;47.310;9.642;2024-03-23T07:17:30;12.90;57.70
78649;DHT22;67962;47.310;9.642;2024-03-23T07:19:55;13.10;58.50
78649;DHT22;67962;47.310;9.642;2024-03-23T07:22:21;13.40;58.90
78649;DHT22;67962;47.310;9.642;2024-03-23T07:24:47;13.50;59.30
78649;DHT22;67962;47.310;9.642;2024-03-23T07:27:12;13.50;58.90
78649;DHT22;67962;47.310;9.642;2024-03-23T07:29:38;13.60;59.90
78649;DHT22;67962;47.310;9.642;2024-03-23T07:32:04;13.50;60.30
78649;DHT22;67962;47.310;9.642;2024-03-23T07:34:30;13.60;61.40
78649;DHT22;67962;47.310;9.642;2024-03-23T07:36:55;13.50;62.00
78649;DHT22;67962;47.310;9.642;2024-03-23T07:39:21;13.50;63.50
78649;DHT22;67962;47.310;9.642;2024-03-23T07:41:47;13.40;64.30
78649;DHT22;67962;47.310;9.642;2024-03-23T07:44:12;13.40;64.70
78649;DHT22;67962;47.310;9.642;2024-03-23T07:46:38;13.30;65.90
78649;DHT22;67962;47.310;9.642;2024-03-23T07:49:07;13.20;67.20
78649;DHT22;67962;47.310;9.642;2024-03-23T07:51:32;13.10;67.90
78649;DHT22;67962;47.310;9.642;2024-03-23T07:53:59;12.90;68.50
78649;DHT22;67962;47.310;9.642;2024-03-23T07:56:24;12.90;69.10
78649;DHT22;67962;47.310;9.642;2024-03-23T07:58:50;12.80;69.30
78649;DHT22;67962;47.310;9.642;2024-03-23T08:01:17;12.80;70.60
78649;DHT22;67962;47.310;9.642;2024-03-23T08:03:44;12.70;71.60
78649;DHT22;67962;47.310;9.642;2024-03-23T08:06:17;12.50;70.60
78649;DHT22;67962;47.310;9.642;2024-03-23T08:08:46;12.40;71.60
78649;DHT22;67962;47.310;9.642;2024-03-23T08:11:13;12.30;71.30
78649;DHT22;67962;47.310;9.642;2024-03-23T08:13:40;12.20;72.00
78649;DHT22;67962;47.310;9.642;2024-03-23T08:16:06;12.10;72.10
78649;DHT22;67962;47.310;9.642;2024-03-23T08:18:32;12.10;71.90
78649;DHT22;67962;47.310;9.642;2024-03-23T08:20:59;12.10;72.70
78649;DHT22;67962;47.310;9.642;2024-03-23T08:23:29;12.00;73.00
78649;DHT22;67962;47.310;9.642;2024-03-23T08:25:59;11.90;73.00
78649;DHT22;67962;47.310;9.642;2024-03-23T08:28:26;11.90;72.60
78649;DHT22;67962;47.310;9.642;2024-03-23T08:30:53;11.90;73.00
78649;DHT22;67962;47.310;9.642;2024-03-23T08:33:19;11.80;72.20
78649;DHT22;67962;47.310;9.642;2024-03-23T08:35:57;11.70;72.30
78649;DHT22;67962;47.310;9.642;2024-03-23T08:38:24;11.70;73.30
78649;DHT22;67962;47.310;9.642;2024-03-23T08:41:03;11.60;70.70
78649;DHT22;67962;47.310;9.642;2024-03-23T08:43:30;11.60;72.60
78649;DHT22;67962;47.310;9.642;2024-03-23T08:48:35;11.30;73.90
78649;DHT22;67962;47.310;9.642;2024-03-23T08:51:05;11.30;74.70
78649;DHT22;67962;47.310;9.642;2024-03-23T08:53:30;11.40;74.30
78649;DHT22;67962;47.310;9.642;2024-03-23T08:55:57;11.30;72.90
78649;DHT22;67962;47.310;9.642;2024-03-23T08:58:27;11.30;74.30
78649;DHT22;67962;47.310;9.642;2024-03-23T09:00:54;11.40;73.90
78649;DHT22;67962;47.310;9.642;2024-03-23T09:03:22;11.30;74.70
78649;DHT22;67962;47.310;9.642;2024-03-23T09:05:48;11.30;76.00
78649;DHT22;67962;47.310;9.642;2024-03-23T09:08:14;11.10;74.70
78649;DHT22;67962;47.310;9.642;2024-03-23T09:10:40;11.10;75.70
78649;DHT22;67962;47.310;9.642;2024-03-23T09:13:06;11.00;75.60
78649;DHT22;67962;47.310;9.642;2024-03-23T09:15:49;11.10;76.30
78649;DHT22;67962;47.310;9.642;2024-03-23T09:18:14;11.00;75.20
78649;DHT22;67962;47.310;9.642;2024-03-23T09:20:40;10.90;75.60
78649;DHT22;67962;47.310;9.642;2024-03-23T09:23:06;10.90;73.80
78649;DHT22;67962;47.310;9.642;2024-03-23T09:25:31;10.70;73.60
78649;DHT22;67962;47.310;9.642;2024-03-23T09:27:58;10.60;72.50
78649;DHT22;67962;47.310;9.642;2024-03-23T09:30:24;10.50;71.90
78649;DHT22;67962;47.310;9.642;2024-03-23T09:32:49;10.30;73.30
78649;DHT22;67962;47.310;9.642;2024-03-23T09:35:15;10.00;73.00
78649;DHT22;67962;47.310;9.642;2024-03-23T09:37:41;9.90;74.00
78649;DHT22;67962;47.310;9.642;2024-03-23T09:40:10;9.90;73.20
78649;DHT22;67962;47.310;9.642;2024-03-23T09:42:36;9.90;75.10
78649;DHT22;67962;47.310;9.642;2024-03-23T09:45:02;9.90;74.40
78649;DHT22;67962;47.310;9.642;2024-03-23T09:47:31;10.00;74.40
78649;DHT22;67962;47.310;9.642;2024-03-23T09:49:57;9.90;73.00
78649;DHT22;67962;47.310;9.642;2024-03-23T09:52:23;9.90;72.50
78649;DHT22;67962;47.310;9.642;2024-03-23T09:54:49;9.90;72.80
78649;DHT22;67962;47.310;9.642;2024-03-23T09:57:14;9.80;73.30
78649;DHT22;67962;47.310;9.642;2024-03-23T09:59:40;9.80;72.20
78649;DHT22;67962;47.310;9.642;2024-03-23T10:02:07;9.80;73.50
78649;DHT22;67962;47.310;9.642;2024-03-23T10:04:39;9.70;72.80
78649;DHT22;67962;47.310;9.642;2024-03-23T10:09:37;9.70;74.30
78649;DHT22;67962;47.310;9.642;2024-03-23T10:12:14;9.70;73.10
78649;DHT22;67962;47.310;9.642;2024-03-23T10:14:40;9.60;73.10
78649;DHT22;67962;47.310;9.642;2024-03-23T10:19:40;9.50;73.00
78649;DHT22;67962;47.310;9.642;2024-03-23T10:22:07;9.50;72.40
78649;DHT22;67962;47.310;9.642;2024-03-23T10:24:33;9.50;71.70
78649;DHT22;67962;47.310;9.642;2024-03-23T10:26:58;9.30;72.10
78649;DHT22;67962;47.310;9.642;2024-03-23T10:29:24;9.30;70.60
78649;DHT22;67962;47.310;9.642;2024-03-23T10:31:53;9.30;70.20
78649;DHT22;67962;47.310;9.642;2024-03-23T10:34:25;9.20;71.20
78649;DHT22;67962;47.310;9.642;2024-03-23T10:36:53;9.30;72.10
78649;DHT22;67962;47.310;9.642;2024-03-23T10:39:20;9.30;71.90
78649;DHT22;67962;47.310;9.642;2024-03-23T10:41:49;9.40;72.60
78649;DHT22;67962;47.310;9.642;2024-03-23T10:44:17;9.50;72.40
78649;DHT22;67962;47.310;9.642;2024-03-23T10:46:44;9.60;67.40
78649;DHT22;67962;47.310;9.642;2024-03-23T10:49:10;9.40;68.60
78649;DHT22;67962;47.310;9.642;2024-03-23T10:51:37;9.30;68.60
78649;DHT22;67962;47.310;9.642;2024-03-23T10:54:04;9.30;66.70
78649;DHT22;67962;47.310;9.642;2024-03-23T10:56:34;9.20;66.40
78649;DHT22;67962;47.310;9.642;2024-03-23T10:59:02;9.10;66.00
78649;DHT22;67962;47.310;9.642;2024-03-23T11:01:29;9.00;67.20
78649;DHT22;67962;47.310;9.642;2024-03-23T11:03:55;8.90;68.80
78649;DHT22;67962;47.310;9.642;2024-03-23T11:06:39;8.80;67.70
78649;DHT22;67962;47.310;9.642;2024-03-23T11:15:10;8.90;67.80
78649;DHT22;67962;47.310;9.642;2024-03-23T11:17:36;9.00;67.70
78649;DHT22;67962;47.310;9.642;2024-03-23T11:20:03;9.00;66.10
78649;DHT22;67962;47.310;9.642;2024-03-23T11:22:41;8.80;68.00
78649;DHT22;67962;47.310;9.642;2024-03-23T11:27:40;8.90;67.50
78649;DHT22;67962;47.310;9.642;2024-03-23T11:32:46;9.10;66.80
78649;DHT22;67962;47.310;9.642;2024-03-23T11:38:14;9.10;67.00
78649;DHT22;67962;47.310;9.642;2024-03-23T11:40:44;9.00;67.30
78649;DHT22;67962;47.310;9.642;2024-03-23T11:43:14;8.90;67.20
78649;DHT22;67962;47.310;9.642;2024-03-23T11:45:48;9.00;68.50
78649;DHT22;67962;47.310;9.642;2024-03-23T11:48:19;9.10;67.90
78649;DHT22;67962;47.310;9.642;2024-03-23T11:50:54;9.10;68.30
78649;DHT22;67962;47.310;9.642;2024-03-23T11:53:22;9.20;65.50
78649;DHT22;67962;47.310;9.642;2024-03-23T11:55:52;9.20;66.70
78649;DHT22;67962;47.310;9.642;2024-03-23T11:58:25;9.10;66.20
78649;DHT22;67962;47.310;9.642;2024-03-23T12:00:57;9.20;66.00
78649;DHT22;67962;47.310;9.642;2024-03-23T12:03:23;9.20;66.20
78649;DHT22;67962;47.310;9.642;2024-03-23T12:05:54;9.20;65.40
78649;DHT22;67962;47.310;9.642;2024-03-23T12:08:31;9.20;66.80
78649;DHT22;67962;47.310;9.642;2024-03-23T12:11:09;9.20;66.70
78649;DHT22;67962;47.310;9.642;2024-03-23T12:13:37;9.20;65.60
78649;DHT22;67962;47.310;9.642;2024-03-23T12:18:41;9.40;63.60
78649;DHT22;67962;47.310;9.642;2024-03-23T12:21:07;9.40;62.90
78649;DHT22;67962;47.310;9.642;2024-03-23T12:23:34;9.30;63.00
78649;DHT22;67962;47.310;9.642;2024-03-23T12:26:00;9.40;61.80
78649;DHT22;67962;47.310;9.642;2024-03-23T12:28:27;9.40;64.00
78649;DHT22;67962;47.310;9.642;2024-03-23T12:30:53;9.50;63.60
78649;DHT22;67962;47.310;9.642;2024-03-23T12:33:22;9.50;63.40
78649;DHT22;67962;47.310;9.642;2024-03-23T12:35:51;9.50;63.60
78649;DHT22;67962;47.310;9.642;2024-03-23T12:38:17;9.50;63.80
78649;DHT22;67962;47.310;9.642;2024-03-23T12:40:52;9.60;63.00
78649;DHT22;67962;47.310;9.642;2024-03-23T12:43:18;9.60;63.10
78649;DHT22;67962;47.310;9.642;2024-03-23T12:45:48;9.70;62.60
78649;DHT22;67962;47.310;9.642;2024-03-23T12:48:15;9.70;64.60
78649;DHT22;67962;47.310;9.642;2024-03-23T12:50:41;9.80;64.90
78649;DHT22;67962;47.310;9.642;2024-03-23T12:53:07;9.90;63.10
78649;DHT22;67962;47.310;9.642;2024-03-23T12:55:35;9.90;61.60
78649;DHT22;67962;47.310;9.642;2024-03-23T12:58:01;9.90;61.00
78649;DHT22;67962;47.310;9.642;2024-03-23T13:00:27;9.90;62.10
78649;DHT22;67962;47.310;9.642;2024-03-23T13:02:52;9.80;62.00
78649;DHT22;67962;47.310;9.642;2024-03-23T13:05:18;9.90;61.30
78649;DHT22;67962;47.310;9.642;2024-03-23T13:07:43;9.90;61.10
78649;DHT22;67962;47.310;9.642;2024-03-23T13:10:09;9.90;61.20
78649;DHT22;67962;47.310;9.642;2024-03-23T13:12:35;9.90;61.70
78649;DHT22;67962;47.310;9.642;2024-03-23T13:15:01;10.00;61.20
78649;DHT22;67962;47.310;9.642;2024-03-23T13:17:27;10.20;60.30
78649;DHT22;67962;47.310;9.642;2024-03-23T13:19:54;10.30;60.10
78649;DHT22;67962;47.310;9.642;2024-03-23T13:22:20;10.20;60.50
78649;DHT22;67962;47.310;9.642;2024-03-23T13:24:46;10.20;61.60
78649;DHT22;67962;47.310;9.642;2024-03-23T13:27:12;10.30;61.10
78649;DHT22;67962;47.310;9.642;2024-03-23T13:29:37;10.40;60.90
78649;DHT22;67962;47.310;9.642;2024-03-23T13:32:03;10.50;61.50
78649;DHT22;67962;47.310;9.642;2024-03-23T13:34:29;10.70;60.70
78649;DHT22;67962;47.310;9.642;2024-03-23T13:36:55;10.80;57.60
78649;DHT22;67962;47.310;9.642;2024-03-23T13:39:24;10.80;60.20
78649;DHT22;67962;47.310;9.642;2024-03-23T13:41:50;11.00;60.80
78649;DHT22;67962;47.310;9.642;2024-03-23T13:44:16;11.10;56.30
78649;DHT22;67962;47.310;9.642;2024-03-23T13:46:43;11.20;56.30
78649;DHT22;67962;47.310;9.642;2024-03-23T13:49:26;11.30;56.90
78649;DHT22;67962;47.310;9.642;2024-03-23T13:51:53;11.50;56.90
78649;DHT22;67962;47.310;9.642;2024-03-23T13:54:19;11.60;56.00
78649;DHT22;67962;47.310;9.642;2024-03-23T13:56:45;11.90;53.50
78649;DHT22;67962;47.310;9.642;2024-03-23T13:59:11;12.00;57.10
78649;DHT22;67962;47.310;9.642;2024-03-23T14:01:37;12.30;46.70
78649;DHT22;67962;47.310;9.642;2024-03-23T14:04:03;12.40;52.50
78649;DHT22;67962;47.310;9.642;2024-03-23T14:06:28;12.50;52.10
78649;DHT22;67962;47.310;9.642;2024-03-23T14:08:54;12.50;49.40
78649;DHT22;67962;47.310;9.642;2024-03-23T14:11:20;12.50;51.90
78649;DHT22;67962;47.310;9.642;2024-03-23T14:13:45;12.50;52.90
78649;DHT22;67962;47.310;9.642;2024-03-23T14:16:11;12.70;52.90
78649;DHT22;67962;47.310;9.642;2024-03-23T14:18:36;12.70;52.60
78649;DHT22;67962;47.310;9.642;2024-03-23T14:21:02;12.80;52.90
78649;DHT22;67962;47.310;9.642;2024-03-23T14:23:30;13.00;51.40
78649;DHT22;67962;47.310;9.642;2024-03-23T14:25:58;12.90;50.10
78649;DHT22;67962;47.310;9.642;2024-03-23T14:28:24;12.70;50.00
78649;DHT22;67962;47.310;9.642;2024-03-23T14:30:51;12.50;52.40
78649;DHT22;67962;47.310;9.642;2024-03-23T14:33:17;12.40;53.60
78649;DHT22;67962;47.310;9.642;2024-03-23T14:35:55;12.30;54.00
78649;DHT22;67962;47.310;9.642;2024-03-23T14:38:23;12.10;55.10
78649;DHT22;67962;47.310;9.642;2024-03-23T14:40:49;11.90;55.00
78649;DHT22;67962;47.310;9.642;2024-03-23T14:43:15;11.80;54.70
78649;DHT22;67962;47.310;9.642;2024-03-23T14:46:06;11.70;55.40
78649;DHT22;67962;47.310;9.642;2024-03-23T14:48:32;11.80;55.40
78649;DHT22;67962;47.310;9.642;2024-03-23T14:50:59;11.80;55.30
78649;DHT22;67962;47.310;9.642;2024-03-23T14:53:26;11.90;56.40
78649;DHT22;67962;47.310;9.642;2024-03-23T14:55:55;11.90;56.80
78649;DHT22;67962;47.310;9.642;2024-03-23T14:58:21;11.80;56.70
78649;DHT22;67962;47.310;9.642;2024-03-23T15:00:48;11.80;56.50
78649;DHT22;67962;47.310;9.642;2024-03-23T15:03:14;11.70;56.80
78649;DHT22;67962;47.310;9.642;2024-03-23T15:05:40;11.70;57.60
78649;DHT22;67962;47.310;9.642;2024-03-23T15:08:06;11.60;56.70
78649;DHT22;67962;47.310;9.642;2024-03-23T15:10:33;11.50;55.90
78649;DHT22;67962;47.310;9.642;2024-03-23T15:12:59;11.50;56.00
78649;DHT22;67962;47.310;9.642;2024-03-23T15:15:24;11.50;55.70
78649;DHT22;67962;47.310;9.642;2024-03-23T15:17:50;11.40;55.90
78649;DHT22;67962;47.310;9.642;2024-03-23T15:20:16;11.40;55.10
78649;DHT22;67962;47.310;9.642;2024-03-23T15:22:42;11.50;56.30
78649;DHT22;67962;47.310;9.642;2024-03-23T15:25:08;11.60;56.70
78649;DHT22;67962;47.310;9.642;2024-03-23T15:27:34;11.70;56.00
78649;DHT22;67962;47.310;9.642;2024-03-23T15:29:59;11.90;55.10
78649;DHT22;67962;47.310;9.642;2024-03-23T15:32:25;12.10;56.10
78649;DHT22;67962;47.310;9.642;2024-03-23T15:34:50;12.20;54.70
78649;DHT22;67962;47.310;9.642;2024-03-23T15:37:17;12.30;50.80
78649;DHT22;67962;47.310;9.642;2024-03-23T15:39:43;12.40;47.70
78649;DHT22;67962;47.310;9.642;2024-03-23T15:42:09;12.60;50.00
78649;DHT22;67962;47.310;9.642;2024-03-23T15:44:35;12.70;50.00
78649;DHT22;67962;47.310;9.642;2024-03-23T15:47:01;12.70;50.30
78649;DHT22;67962;47.310;9.642;2024-03-23T15:49:27;12.90;50.40
78649;DHT22;67962;47.310;9.642;2024-03-23T15:51:53;13.00;48.70
78649;DHT22;67962;47.310;9.642;2024-03-23T15:54:19;13.10;49.10
78649;DHT22;67962;47.310;9.642;2024-03-23T15:56:45;13.30;48.50
78649;DHT22;67962;47.310;9.642;2024-03-23T15:59:11;13.40;48.20
78649;DHT22;67962;47.310;9.642;2024-03-23T16:01:36;13.40;49.30
78649;DHT22;67962;47.310;9.642;2024-03-23T16:04:04;13.40;49.50
78649;DHT22;67962;47.310;9.642;2024-03-23T16:06:29;13.40;48.10
78649;DHT22;67962;47.310;9.642;2024-03-23T16:08:55;13.50;49.30
78649;DHT22;67962;47.310;9.642;2024-03-23T16:11:21;13.80;56.50
78649;DHT22;67962;47.310;9.642;2024-03-23T16:13:46;14.50;57.20
78649;DHT22;67962;47.310;9.642;2024-03-23T16:16:12;14.80;50.40
78649;DHT22;67962;47.310;9.642;2024-03-23T16:18:38;14.70;48.00
78649;DHT22;67962;47.310;9.642;2024-03-23T16:21:07;14.60;47.00
78649;DHT22;67962;47.310;9.642;2024-03-23T16:23:34;14.40;43.80
78649;DHT22;67962;47.310;9.642;2024-03-23T16:26:02;14.20;39.70
78649;DHT22;67962;47.310;9.642;2024-03-23T16:28:30;13.80;41.60
78649;DHT22;67962;47.310;9.642;2024-03-23T16:30:59;13.50;43.40
78649;DHT22;67962;47.310;9.642;2024-03-23T16:33:26;13.30;42.40
78649;DHT22;67962;47.310;9.642;2024-03-23T16:38:42;13.00;45.30
78649;DHT22;67962;47.310;9.642;2024-03-23T16:41:11;12.90;45.60
78649;DHT22;67962;47.310;9.642;2024-03-23T16:43:44;12.70;44.60
78649;DHT22;67962;47.310;9.642;2024-03-23T16:46:11;12.40;44.30
78649;DHT22;67962;47.310;9.642;2024-03-23T16:48:38;12.20;45.40
78649;DHT22;67962;47.310;9.642;2024-03-23T16:51:08;12.20;44.60
78649;DHT22;67962;47.310;9.642;2024-03-23T16:53:34;12.10;45.60